Time;durP1;ratioP1;P1;durP2;ratioP2;P2;SDS_P1;SDS_P2;PMS_P1;PMS_P2;Temp;Humidity;BMP_temperature;BMP_pressure;BME280_temperature;BME280_humidity;BME280_pressure;Samples;Min_cycle;Max_cycle;Signal;HPM_P1;HPM_P2
2022/11/10 00:00:00;;;;;;;0.9;0.9;;;;;;;10.3;100.0;101460;;;;
2022/11/10 00:01:04;;;;;;;0.9;0.9;;;;;;;10.3;100.0;101460;;;;
2022/11/10 00:02:00;;;;;;;0.9;0.9;;;;;;;10.3;100.0;101460;;;;
2022/11/10 00:03:01;;;;;;;0.9;0.9;;;;;;;10.3;100.0;101450;;;;
2022/11/10 00:04:00;;;;;;;0.9;0.9;;;;;;;10.3;100.0;101450;;;;
2022/11/10 00:05:00;;;;;;;0.9;0.9;;;;;;;10.1;100.0;101450;;;;
2022/11/10 00:06:02;;;;;;;0.9;0.9;;;;;;;10.1;100.0;101450;;;;
2022/11/10 00:07:00;;;;;;;0.9;0.9;;;;;;;10.1;100.0;101460;;;;
2022/11/10 00:08:02;;;;;;;0.9;0.9;;;;;;;10.1;100.0;101460;;;;
2022/11/10 00:09:00;;;;;;;0.9;0.9;;;;;;;10.1;100.0;101460;;;;
2022/11/10 00:10:00;;;;;;;0.9;0.9;;;;;;;10.1;100.0;101460;;;;
2022/11/10 00:11:05;;;;;;;0.9;0.9;;;;;;;10.1;100.0;101460;;;;
2022/11/10 00:12:00;;;;;;;0.9;0.9;;;;;;;10.1;100.0;101460;;;;
2022/11/10 00:13:00;;;;;;;0.9;0.9;;;;;;;10.2;100.0;101470;;;;
2022/11/10 00:17:00;;;;;;;0.9;0.9;;;;;;;10.1;100.0;101460;;;;
2022/11/10 00:18:01;;;;;;;0.9;0.9;;;;;;;10.1;100.0;101460;;;;
2022/11/10 00:19:00;;;;;;;0.9;0.9;;;;;;;10.1;100.0;101460;;;;
2022/11/10 00:20:00;;;;;;;0.9;0.9;;;;;;;10.1;100.0;101460;;;;
2022/11/10 00:21:02;;;;;;;0.9;0.9;;;;;;;10.1;100.0;101460;;;;
2022/11/10 00:22:00;;;;;;;0.9;0.9;;;;;;;10.1;100.0;101460;;;;
2022/11/10 00:23:00;;;;;;;0.9;0.9;;;;;;;10.0;100.0;101460;;;;
2022/11/10 00:24:00;;;;;;;0.9;0.9;;;;;;;10.0;100.0;101460;;;;
2022/11/10 00:25:00;;;;;;;0.9;0.9;;;;;;;10.0;100.0;101460;;;;
2022/11/10 00:26:00;;;;;;;0.9;0.9;;;;;;;10.0;100.0;101460;;;;
2022/11/10 00:27:00;;;;;;;0.9;0.9;;;;;;;10.0;100.0;101470;;;;
2022/11/10 00:28:00;;;;;;;0.9;0.9;;;;;;;10.0;100.0;101470;;;;
2022/11/10 00:29:00;;;;;;;0.9;0.9;;;;;;;9.9;100.0;101470;;;;
2022/11/10 00:30:00;;;;;;;0.9;0.9;;;;;;;9.9;100.0;101470;;;;
2022/11/10 00:31:03;;;;;;;1.2;1.2;;;;;;;10.1;100.0;101470;;;;
2022/11/10 00:32:00;;;;;;;1.2;1.2;;;;;;;10.1;100.0;101470;;;;
2022/11/10 00:33:00;;;;;;;1.2;1.2;;;;;;;10.0;100.0;101470;;;;
2022/11/10 00:34:00;;;;;;;1.2;1.2;;;;;;;10.0;100.0;101470;;;;
2022/11/10 00:35:00;;;;;;;1.2;1.2;;;;;;;10.1;100.0;101480;;;;
2022/11/10 00:36:00;;;;;;;1.2;1.2;;;;;;;10.1;100.0;101480;;;;
2022/11/10 00:37:00;;;;;;;1.2;1.2;;;;;;;10.0;100.0;101480;;;;
2022/11/10 00:38:00;;;;;;;1.2;1.2;;;;;;;10.0;100.0;101480;;;;
2022/11/10 00:39:00;;;;;;;1.2;1.2;;;;;;;10.1;100.0;101480;;;;
2022/11/10 00:40:00;;;;;;;1.2;1.2;;;;;;;10.1;100.0;101480;;;;
2022/11/10 00:41:00;;;;;;;1.2;1.2;;;;;;;10.1;100.0;101480;;;;
2022/11/10 00:42:00;;;;;;;1.2;1.2;;;;;;;10.1;100.0;101480;;;;
2022/11/10 00:43:00;;;;;;;1.2;1.2;;;;;;;10.0;100.0;101490;;;;
2022/11/10 00:44:00;;;;;;;1.2;1.2;;;;;;;10.0;100.0;101490;;;;
2022/11/10 00:45:00;;;;;;;1.2;1.2;;;;;;;10.0;100.0;101490;;;;
2022/11/10 00:46:00;;;;;;;1.2;1.2;;;;;;;10.0;100.0;101490;;;;
2022/11/10 00:47:00;;;;;;;1.2;1.2;;;;;;;10.1;100.0;101490;;;;
2022/11/10 00:48:00;;;;;;;1.2;1.2;;;;;;;10.1;100.0;101490;;;;
2022/11/10 00:49:00;;;;;;;1.2;1.2;;;;;;;10.0;100.0;101490;;;;
2022/11/10 00:50:00;;;;;;;1.0;1.0;;;;;;;10.0;100.0;101490;;;;
2022/11/10 00:51:00;;;;;;;1.0;1.0;;;;;;;9.9;100.0;101490;;;;
2022/11/10 00:52:00;;;;;;;1.0;1.0;;;;;;;9.9;100.0;101490;;;;
2022/11/10 00:53:00;;;;;;;1.0;1.0;;;;;;;9.9;100.0;101490;;;;
2022/11/10 00:54:00;;;;;;;1.0;1.0;;;;;;;9.9;100.0;101490;;;;
2022/11/10 00:55:00;;;;;;;1.0;1.0;;;;;;;10.1;100.0;101500;;;;
2022/11/10 00:56:00;;;;;;;1.0;1.0;;;;;;;10.1;100.0;101500;;;;
2022/11/10 00:57:00;;;;;;;1.0;1.0;;;;;;;9.9;100.0;101500;;;;
2022/11/10 00:58:00;;;;;;;1.0;1.0;;;;;;;9.9;100.0;101500;;;;
2022/11/10 00:59:00;;;;;;;1.0;1.0;;;;;;;9.9;100.0;101490;;;;
2022/11/10 01:00:00;;;;;;;1.0;1.0;;;;;;;9.9;100.0;101490;;;;
2022/11/10 01:01:01;;;;;;;1.0;1.0;;;;;;;9.9;100.0;101490;;;;
2022/11/10 01:02:00;;;;;;;1.0;1.0;;;;;;;9.9;100.0;101490;;;;
2022/11/10 01:03:01;;;;;;;1.0;1.0;;;;;;;9.9;100.0;101500;;;;
2022/11/10 01:04:00;;;;;;;1.0;1.0;;;;;;;9.9;100.0;101500;;;;
2022/11/10 01:05:00;;;;;;;1.0;1.0;;;;;;;9.9;100.0;101500;;;;
2022/11/10 01:06:08;;;;;;;1.0;1.0;;;;;;;9.9;100.0;101500;;;;
2022/11/10 01:07:00;;;;;;;1.0;1.0;;;;;;;9.9;100.0;101500;;;;
2022/11/10 01:08:00;;;;;;;1.0;1.0;;;;;;;9.9;100.0;101500;;;;
2022/11/10 01:09:00;;;;;;;1.0;1.0;;;;;;;9.9;100.0;101490;;;;
2022/11/10 01:10:00;;;;;;;1.0;1.0;;;;;;;9.9;100.0;101490;;;;
2022/11/10 01:11:01;;;;;;;1.0;1.0;;;;;;;10.0;100.0;101500;;;;
2022/11/10 01:12:00;;;;;;;1.0;1.0;;;;;;;10.0;100.0;101500;;;;
2022/11/10 01:13:00;;;;;;;1.0;1.0;;;;;;;9.9;100.0;101500;;;;
2022/11/10 01:14:00;;;;;;;1.0;1.0;;;;;;;9.9;100.0;101500;;;;
2022/11/10 01:15:00;;;;;;;1.0;1.0;;;;;;;9.9;100.0;101500;;;;
2022/11/10 01:16:04;;;;;;;1.0;1.0;;;;;;;9.9;100.0;101500;;;;
2022/11/10 01:17:00;;;;;;;1.0;1.0;;;;;;;9.9;100.0;101510;;;;
2022/11/10 01:18:00;;;;;;;1.0;1.0;;;;;;;9.9;100.0;101510;;;;
2022/11/10 01:19:01;;;;;;;1.0;1.0;;;;;;;10.0;100.0;101510;;;;
2022/11/10 01:20:00;;;;;;;1.0;1.0;;;;;;;10.0;100.0;101510;;;;
2022/11/10 01:21:00;;;;;;;1.0;1.0;;;;;;;9.9;100.0;101520;;;;
2022/11/10 01:22:00;;;;;;;1.0;1.0;;;;;;;9.9;100.0;101520;;;;
2022/11/10 01:23:00;;;;;;;1.0;1.0;;;;;;;9.9;100.0;101520;;;;
2022/11/10 01:24:00;;;;;;;1.0;1.0;;;;;;;9.9;100.0;101520;;;;
2022/11/10 01:25:00;;;;;;;1.0;1.0;;;;;;;9.9;100.0;101530;;;;
2022/11/10 01:26:01;;;;;;;1.0;1.0;;;;;;;9.9;100.0;101530;;;;
2022/11/10 01:27:00;;;;;;;1.0;1.0;;;;;;;9.9;100.0;101540;;;;
2022/11/10 01:28:00;;;;;;;1.0;1.0;;;;;;;9.9;100.0;101540;;;;
2022/11/10 01:29:00;;;;;;;1.0;1.0;;;;;;;9.9;100.0;101540;;;;
2022/11/10 01:30:00;;;;;;;0.8;0.8;;;;;;;9.9;100.0;101540;;;;
2022/11/10 01:31:01;;;;;;;0.8;0.8;;;;;;;9.9;100.0;101540;;;;
2022/11/10 01:32:00;;;;;;;0.8;0.8;;;;;;;9.9;100.0;101540;;;;
2022/11/10 01:33:00;;;;;;;0.8;0.8;;;;;;;9.9;100.0;101540;;;;
2022/11/10 01:34:00;;;;;;;0.8;0.8;;;;;;;9.9;100.0;101540;;;;
2022/11/10 01:35:00;;;;;;;0.8;0.8;;;;;;;9.8;100.0;101540;;;;
2022/11/10 01:36:00;;;;;;;0.8;0.8;;;;;;;9.8;100.0;101540;;;;
2022/11/10 01:37:00;;;;;;;0.8;0.8;;;;;;;10.0;100.0;101540;;;;
2022/11/10 01:38:00;;;;;;;0.8;0.8;;;;;;;10.0;100.0;101540;;;;
2022/11/10 01:39:00;;;;;;;0.8;0.8;;;;;;;9.9;100.0;101540;;;;
2022/11/10 01:40:00;;;;;;;0.8;0.8;;;;;;;9.9;100.0;101540;;;;
2022/11/10 01:41:00;;;;;;;0.8;0.8;;;;;;;9.9;100.0;101540;;;;
2022/11/10 01:42:00;;;;;;;0.8;0.8;;;;;;;9.9;100.0;101540;;;;
2022/11/10 01:43:00;;;;;;;0.8;0.8;;;;;;;9.9;100.0;101540;;;;
2022/11/10 01:44:10;;;;;;;0.8;0.8;;;;;;;9.9;100.0;101540;;;;
2022/11/10 01:45:10;;;;;;;0.8;0.8;;;;;;;9.8;100.0;101550;;;;
2022/11/10 01:46:01;;;;;;;0.8;0.8;;;;;;;9.8;100.0;101550;;;;
2022/11/10 01:47:00;;;;;;;0.8;0.8;;;;;;;9.8;100.0;101550;;;;
2022/11/10 01:48:02;;;;;;;0.8;0.8;;;;;;;9.8;100.0;101550;;;;
2022/11/10 01:49:01;;;;;;;0.8;0.8;;;;;;;9.8;100.0;101550;;;;
2022/11/10 01:50:00;;;;;;;0.9;0.9;;;;;;;9.8;100.0;101550;;;;
2022/11/10 01:51:04;;;;;;;0.9;0.9;;;;;;;9.8;100.0;101540;;;;
2022/11/10 01:52:10;;;;;;;0.9;0.9;;;;;;;9.8;100.0;101540;;;;
2022/11/10 01:53:02;;;;;;;0.9;0.9;;;;;;;9.8;100.0;101540;;;;
2022/11/10 01:54:02;;;;;;;0.9;0.9;;;;;;;9.8;100.0;101540;;;;
2022/11/10 01:55:00;;;;;;;0.9;0.9;;;;;;;9.8;100.0;101540;;;;
2022/11/10 01:56:01;;;;;;;0.9;0.9;;;;;;;9.8;100.0;101540;;;;
2022/11/10 01:57:04;;;;;;;0.9;0.9;;;;;;;9.7;100.0;101550;;;;
2022/11/10 01:58:00;;;;;;;0.9;0.9;;;;;;;9.7;100.0;101550;;;;
2022/11/10 01:59:02;;;;;;;0.9;0.9;;;;;;;9.8;100.0;101550;;;;
2022/11/10 02:00:00;;;;;;;0.9;0.9;;;;;;;9.8;100.0;101550;;;;
2022/11/10 02:01:00;;;;;;;0.9;0.9;;;;;;;9.7;100.0;101540;;;;
2022/11/10 02:02:06;;;;;;;0.9;0.9;;;;;;;9.7;100.0;101540;;;;
2022/11/10 02:03:02;;;;;;;0.9;0.9;;;;;;;9.7;100.0;101550;;;;
2022/11/10 02:04:03;;;;;;;0.9;0.9;;;;;;;9.7;100.0;101550;;;;
2022/11/10 02:05:00;;;;;;;0.9;0.9;;;;;;;9.7;100.0;101540;;;;
2022/11/10 02:06:00;;;;;;;0.9;0.9;;;;;;;9.7;100.0;101540;;;;
2022/11/10 02:07:00;;;;;;;0.9;0.9;;;;;;;9.6;100.0;101540;;;;
2022/11/10 02:08:01;;;;;;;0.9;0.9;;;;;;;9.6;100.0;101540;;;;
2022/11/10 02:09:00;;;;;;;0.9;0.9;;;;;;;9.7;100.0;101530;;;;
2022/11/10 02:10:01;;;;;;;1.1;1.1;;;;;;;9.7;100.0;101530;;;;
2022/11/10 02:11:00;;;;;;;1.1;1.1;;;;;;;9.7;100.0;101530;;;;
2022/11/10 02:12:00;;;;;;;1.1;1.1;;;;;;;9.7;100.0;101530;;;;
2022/11/10 02:13:01;;;;;;;1.1;1.1;;;;;;;9.7;100.0;101540;;;;
2022/11/10 02:14:00;;;;;;;1.1;1.1;;;;;;;9.7;100.0;101540;;;;
2022/11/10 02:15:00;;;;;;;1.1;1.1;;;;;;;9.7;100.0;101550;;;;
2022/11/10 02:16:00;;;;;;;1.1;1.1;;;;;;;9.7;100.0;101550;;;;
2022/11/10 02:17:00;;;;;;;1.1;1.1;;;;;;;9.6;100.0;101550;;;;
2022/11/10 02:18:00;;;;;;;1.1;1.1;;;;;;;9.6;100.0;101550;;;;
2022/11/10 02:19:10;;;;;;;1.1;1.1;;;;;;;9.6;100.0;101550;;;;
2022/11/10 02:20:03;;;;;;;1.1;1.1;;;;;;;9.6;100.0;101550;;;;
2022/11/10 02:21:02;;;;;;;1.1;1.1;;;;;;;9.6;100.0;101550;;;;
2022/11/10 02:22:00;;;;;;;1.1;1.1;;;;;;;9.6;100.0;101550;;;;
2022/11/10 02:23:10;;;;;;;1.1;1.1;;;;;;;9.6;100.0;101550;;;;
2022/11/10 02:24:00;;;;;;;1.1;1.1;;;;;;;9.6;100.0;101550;;;;
2022/11/10 02:25:00;;;;;;;1.1;1.1;;;;;;;9.7;100.0;101560;;;;
2022/11/10 02:26:01;;;;;;;1.1;1.1;;;;;;;9.7;100.0;101560;;;;
2022/11/10 02:27:00;;;;;;;1.1;1.1;;;;;;;9.8;100.0;101560;;;;
2022/11/10 02:28:00;;;;;;;1.1;1.1;;;;;;;9.8;100.0;101560;;;;
2022/11/10 02:29:00;;;;;;;1.1;1.1;;;;;;;9.6;100.0;101570;;;;
2022/11/10 02:30:00;;;;;;;1.1;1.1;;;;;;;9.6;100.0;101570;;;;
2022/11/10 02:31:00;;;;;;;1.1;1.1;;;;;;;9.7;100.0;101570;;;;
2022/11/10 02:32:00;;;;;;;1.1;1.1;;;;;;;9.7;100.0;101570;;;;
2022/11/10 02:33:01;;;;;;;1.1;1.1;;;;;;;9.6;100.0;101580;;;;
2022/11/10 02:34:00;;;;;;;1.1;1.1;;;;;;;9.6;100.0;101580;;;;
2022/11/10 02:35:00;;;;;;;1.1;1.1;;;;;;;9.7;100.0;101580;;;;
2022/11/10 02:36:00;;;;;;;1.1;1.1;;;;;;;9.7;100.0;101580;;;;
2022/11/10 02:37:00;;;;;;;1.1;1.1;;;;;;;9.7;100.0;101580;;;;
2022/11/10 02:38:00;;;;;;;1.1;1.1;;;;;;;9.7;100.0;101580;;;;
2022/11/10 02:39:00;;;;;;;1.1;1.1;;;;;;;9.7;100.0;101590;;;;
2022/11/10 02:40:00;;;;;;;1.1;1.1;;;;;;;9.7;100.0;101590;;;;
2022/11/10 02:41:00;;;;;;;1.1;1.1;;;;;;;9.7;100.0;101600;;;;
2022/11/10 02:42:00;;;;;;;1.1;1.1;;;;;;;9.7;100.0;101600;;;;
2022/11/10 02:43:00;;;;;;;1.1;1.1;;;;;;;9.7;100.0;101590;;;;
2022/11/10 02:44:01;;;;;;;1.1;1.1;;;;;;;9.7;100.0;101590;;;;
2022/11/10 02:45:00;;;;;;;1.1;1.1;;;;;;;9.6;100.0;101590;;;;
2022/11/10 02:46:00;;;;;;;1.1;1.1;;;;;;;9.6;100.0;101590;;;;
2022/11/10 02:47:00;;;;;;;1.1;1.1;;;;;;;9.7;100.0;101590;;;;
2022/11/10 02:48:00;;;;;;;1.1;1.1;;;;;;;9.7;100.0;101590;;;;
2022/11/10 02:49:00;;;;;;;1.1;1.1;;;;;;;9.7;100.0;101600;;;;
2022/11/10 02:50:00;;;;;;;0.9;0.9;;;;;;;9.7;100.0;101600;;;;
2022/11/10 02:51:00;;;;;;;0.9;0.9;;;;;;;9.7;100.0;101600;;;;
2022/11/10 02:52:00;;;;;;;0.9;0.9;;;;;;;9.7;100.0;101600;;;;
2022/11/10 02:53:00;;;;;;;0.9;0.9;;;;;;;9.6;100.0;101600;;;;
2022/11/10 02:54:00;;;;;;;0.9;0.9;;;;;;;9.6;100.0;101600;;;;
2022/11/10 02:55:00;;;;;;;0.9;0.9;;;;;;;9.6;100.0;101590;;;;
2022/11/10 02:56:00;;;;;;;0.9;0.9;;;;;;;9.6;100.0;101590;;;;
2022/11/10 02:57:01;;;;;;;0.9;0.9;;;;;;;9.7;100.0;101600;;;;
2022/11/10 02:58:00;;;;;;;0.9;0.9;;;;;;;9.7;100.0;101600;;;;
2022/11/10 02:59:00;;;;;;;0.9;0.9;;;;;;;9.6;100.0;101600;;;;
2022/11/10 03:00:00;;;;;;;0.9;0.9;;;;;;;9.6;100.0;101600;;;;
2022/11/10 03:01:03;;;;;;;0.9;0.9;;;;;;;9.6;100.0;101600;;;;
2022/11/10 03:02:00;;;;;;;0.9;0.9;;;;;;;9.6;100.0;101600;;;;
2022/11/10 03:03:01;;;;;;;0.9;0.9;;;;;;;9.6;100.0;101610;;;;
2022/11/10 03:04:00;;;;;;;0.9;0.9;;;;;;;9.6;100.0;101610;;;;
2022/11/10 03:05:00;;;;;;;0.9;0.9;;;;;;;9.6;100.0;101610;;;;
2022/11/10 03:06:00;;;;;;;0.9;0.9;;;;;;;9.6;100.0;101610;;;;
2022/11/10 03:07:00;;;;;;;0.9;0.9;;;;;;;9.6;100.0;101610;;;;
2022/11/10 03:08:00;;;;;;;0.9;0.9;;;;;;;9.6;100.0;101610;;;;
2022/11/10 03:09:00;;;;;;;0.9;0.9;;;;;;;9.6;100.0;101610;;;;
2022/11/10 03:10:00;;;;;;;1.1;1.1;;;;;;;9.6;100.0;101610;;;;
2022/11/10 03:11:00;;;;;;;1.1;1.1;;;;;;;9.6;100.0;101600;;;;
2022/11/10 03:12:00;;;;;;;1.1;1.1;;;;;;;9.6;100.0;101600;;;;
2022/11/10 03:13:01;;;;;;;1.1;1.1;;;;;;;9.6;100.0;101600;;;;
2022/11/10 03:14:02;;;;;;;1.1;1.1;;;;;;;9.6;100.0;101600;;;;
2022/11/10 03:15:00;;;;;;;1.1;1.1;;;;;;;9.5;100.0;101600;;;;
2022/11/10 03:16:00;;;;;;;1.1;1.1;;;;;;;9.5;100.0;101600;;;;
2022/11/10 03:17:00;;;;;;;1.1;1.1;;;;;;;9.5;100.0;101600;;;;
2022/11/10 03:18:02;;;;;;;1.1;1.1;;;;;;;9.5;100.0;101600;;;;
2022/11/10 03:19:00;;;;;;;1.1;1.1;;;;;;;9.5;100.0;101600;;;;
2022/11/10 03:20:00;;;;;;;1.1;1.1;;;;;;;9.5;100.0;101600;;;;
2022/11/10 03:21:00;;;;;;;1.1;1.1;;;;;;;9.5;100.0;101610;;;;
2022/11/10 03:22:00;;;;;;;1.1;1.1;;;;;;;9.5;100.0;101610;;;;
2022/11/10 03:23:01;;;;;;;1.1;1.1;;;;;;;9.4;100.0;101620;;;;
2022/11/10 03:24:00;;;;;;;1.1;1.1;;;;;;;9.4;100.0;101620;;;;
2022/11/10 03:25:00;;;;;;;1.1;1.1;;;;;;;9.5;100.0;101620;;;;
2022/11/10 03:26:03;;;;;;;1.1;1.1;;;;;;;9.5;100.0;101620;;;;
2022/11/10 03:27:00;;;;;;;1.1;1.1;;;;;;;9.5;100.0;101630;;;;
2022/11/10 03:28:00;;;;;;;1.1;1.1;;;;;;;9.5;100.0;101630;;;;
2022/11/10 03:29:00;;;;;;;1.1;1.1;;;;;;;9.4;100.0;101630;;;;
2022/11/10 03:30:00;;;;;;;2.0;1.6;;;;;;;9.4;100.0;101630;;;;
2022/11/10 03:31:00;;;;;;;2.0;1.6;;;;;;;9.5;100.0;101640;;;;
2022/11/10 03:32:00;;;;;;;2.0;1.6;;;;;;;9.5;100.0;101640;;;;
2022/11/10 03:33:00;;;;;;;2.0;1.6;;;;;;;9.5;100.0;101640;;;;
2022/11/10 03:34:00;;;;;;;2.0;1.6;;;;;;;9.5;100.0;101640;;;;
2022/11/10 03:35:00;;;;;;;2.0;1.6;;;;;;;9.4;100.0;101640;;;;
2022/11/10 03:36:00;;;;;;;2.0;1.6;;;;;;;9.4;100.0;101640;;;;
2022/11/10 03:37:00;;;;;;;2.0;1.6;;;;;;;9.5;100.0;101640;;;;
2022/11/10 03:38:00;;;;;;;2.0;1.6;;;;;;;9.5;100.0;101640;;;;
2022/11/10 03:39:00;;;;;;;2.0;1.6;;;;;;;9.4;100.0;101640;;;;
2022/11/10 03:40:00;;;;;;;2.0;1.6;;;;;;;9.4;100.0;101640;;;;
2022/11/10 03:41:10;;;;;;;2.0;1.6;;;;;;;9.4;100.0;101640;;;;
2022/11/10 03:42:00;;;;;;;2.0;1.6;;;;;;;9.4;100.0;101640;;;;
2022/11/10 03:43:00;;;;;;;2.0;1.6;;;;;;;9.3;100.0;101650;;;;
2022/11/10 03:44:00;;;;;;;2.0;1.6;;;;;;;9.3;100.0;101650;;;;
2022/11/10 03:45:00;;;;;;;2.0;1.6;;;;;;;9.4;100.0;101650;;;;
2022/11/10 03:46:00;;;;;;;2.0;1.6;;;;;;;9.4;100.0;101650;;;;
2022/11/10 03:47:02;;;;;;;2.0;1.6;;;;;;;9.4;100.0;101650;;;;
2022/11/10 03:48:00;;;;;;;2.0;1.6;;;;;;;9.4;100.0;101650;;;;
2022/11/10 03:49:00;;;;;;;2.0;1.6;;;;;;;9.3;100.0;101660;;;;
2022/11/10 03:50:00;;;;;;;1.1;1.1;;;;;;;9.3;100.0;101660;;;;
2022/11/10 03:51:00;;;;;;;1.1;1.1;;;;;;;9.3;100.0;101650;;;;
2022/11/10 03:52:00;;;;;;;1.1;1.1;;;;;;;9.3;100.0;101650;;;;
2022/11/10 03:53:00;;;;;;;1.1;1.1;;;;;;;9.3;100.0;101660;;;;
2022/11/10 03:54:00;;;;;;;1.1;1.1;;;;;;;9.3;100.0;101660;;;;
2022/11/10 03:55:03;;;;;;;1.1;1.1;;;;;;;9.4;100.0;101660;;;;
2022/11/10 03:56:00;;;;;;;1.1;1.1;;;;;;;9.4;100.0;101660;;;;
2022/11/10 03:57:00;;;;;;;1.1;1.1;;;;;;;9.4;100.0;101670;;;;
2022/11/10 03:58:01;;;;;;;1.1;1.1;;;;;;;9.4;100.0;101670;;;;
2022/11/10 03:59:00;;;;;;;1.1;1.1;;;;;;;9.4;100.0;101670;;;;
2022/11/10 04:00:00;;;;;;;1.1;1.1;;;;;;;9.4;100.0;101670;;;;
2022/11/10 04:01:00;;;;;;;1.1;1.1;;;;;;;9.3;100.0;101670;;;;
2022/11/10 04:02:00;;;;;;;1.1;1.1;;;;;;;9.3;100.0;101670;;;;
2022/11/10 04:03:00;;;;;;;1.1;1.1;;;;;;;9.3;100.0;101670;;;;
2022/11/10 04:04:00;;;;;;;1.1;1.1;;;;;;;9.3;100.0;101670;;;;
2022/11/10 04:09:00;;;;;;;1.1;1.1;;;;;;;9.2;100.0;101670;;;;
2022/11/10 04:10:00;;;;;;;1.1;1.1;;;;;;;9.2;100.0;101670;;;;
2022/11/10 04:11:00;;;;;;;1.1;1.1;;;;;;;9.2;100.0;101670;;;;
2022/11/10 04:16:00;;;;;;;1.1;1.1;;;;;;;9.2;100.0;101680;;;;
2022/11/10 04:17:00;;;;;;;1.1;1.1;;;;;;;9.3;100.0;101680;;;;
2022/11/10 04:19:00;;;;;;;1.1;1.1;;;;;;;9.3;100.0;101690;;;;
2022/11/10 04:20:01;;;;;;;1.1;1.1;;;;;;;9.3;100.0;101690;;;;
2022/11/10 04:21:00;;;;;;;1.1;1.1;;;;;;;9.2;100.0;101700;;;;
2022/11/10 04:22:00;;;;;;;1.1;1.1;;;;;;;9.2;100.0;101700;;;;
2022/11/10 04:24:00;;;;;;;1.1;1.1;;;;;;;9.2;100.0;101710;;;;
2022/11/10 04:25:00;;;;;;;1.1;1.1;;;;;;;9.2;100.0;101710;;;;
2022/11/10 04:27:00;;;;;;;1.1;1.1;;;;;;;9.2;100.0;101720;;;;
2022/11/10 04:28:00;;;;;;;1.1;1.1;;;;;;;9.2;100.0;101720;;;;
2022/11/10 04:29:01;;;;;;;1.1;1.1;;;;;;;9.3;100.0;101720;;;;
2022/11/10 04:30:00;;;;;;;1.0;1.0;;;;;;;9.3;100.0;101720;;;;
2022/11/10 04:31:00;;;;;;;1.0;1.0;;;;;;;9.2;100.0;101730;;;;
2022/11/10 04:32:00;;;;;;;1.0;1.0;;;;;;;9.2;100.0;101730;;;;
2022/11/10 04:33:00;;;;;;;1.0;1.0;;;;;;;9.1;100.0;101740;;;;
2022/11/10 04:34:00;;;;;;;1.0;1.0;;;;;;;9.1;100.0;101740;;;;
2022/11/10 04:35:00;;;;;;;1.0;1.0;;;;;;;9.2;100.0;101740;;;;
2022/11/10 04:36:00;;;;;;;1.0;1.0;;;;;;;9.2;100.0;101740;;;;
2022/11/10 04:37:00;;;;;;;1.0;1.0;;;;;;;9.3;100.0;101750;;;;
2022/11/10 04:38:00;;;;;;;1.0;1.0;;;;;;;9.3;100.0;101750;;;;
2022/11/10 04:39:00;;;;;;;1.0;1.0;;;;;;;9.2;100.0;101750;;;;
2022/11/10 04:40:00;;;;;;;1.0;1.0;;;;;;;9.2;100.0;101750;;;;
2022/11/10 04:41:00;;;;;;;1.0;1.0;;;;;;;9.2;100.0;101750;;;;
2022/11/10 04:42:03;;;;;;;1.0;1.0;;;;;;;9.2;100.0;101750;;;;
2022/11/10 04:43:00;;;;;;;1.0;1.0;;;;;;;9.2;100.0;101750;;;;
2022/11/10 04:44:00;;;;;;;1.0;1.0;;;;;;;9.2;100.0;101750;;;;
2022/11/10 04:45:00;;;;;;;1.0;1.0;;;;;;;9.1;100.0;101760;;;;
2022/11/10 04:46:00;;;;;;;1.0;1.0;;;;;;;9.1;100.0;101760;;;;
2022/11/10 04:47:00;;;;;;;1.0;1.0;;;;;;;9.1;100.0;101760;;;;
2022/11/10 04:48:00;;;;;;;1.0;1.0;;;;;;;9.1;100.0;101760;;;;
2022/11/10 04:49:00;;;;;;;1.0;1.0;;;;;;;9.2;100.0;101760;;;;
2022/11/10 04:50:00;;;;;;;1.1;1.1;;;;;;;9.2;100.0;101760;;;;
2022/11/10 04:51:04;;;;;;;1.1;1.1;;;;;;;9.2;100.0;101760;;;;
2022/11/10 04:52:00;;;;;;;1.1;1.1;;;;;;;9.2;100.0;101760;;;;
2022/11/10 04:53:00;;;;;;;1.1;1.1;;;;;;;9.2;100.0;101760;;;;
2022/11/10 04:54:00;;;;;;;1.1;1.1;;;;;;;9.2;100.0;101760;;;;
2022/11/10 04:55:00;;;;;;;1.1;1.1;;;;;;;9.1;100.0;101770;;;;
2022/11/10 04:56:00;;;;;;;1.1;1.1;;;;;;;9.1;100.0;101770;;;;
2022/11/10 04:57:00;;;;;;;1.1;1.1;;;;;;;9.1;100.0;101770;;;;
2022/11/10 04:58:00;;;;;;;1.1;1.1;;;;;;;9.1;100.0;101770;;;;
2022/11/10 04:59:00;;;;;;;1.1;1.1;;;;;;;9.2;100.0;101770;;;;
2022/11/10 05:00:00;;;;;;;1.1;1.1;;;;;;;9.2;100.0;101770;;;;
2022/11/10 05:01:00;;;;;;;1.1;1.1;;;;;;;9.2;100.0;101770;;;;
2022/11/10 05:02:00;;;;;;;1.1;1.1;;;;;;;9.2;100.0;101770;;;;
2022/11/10 05:03:01;;;;;;;1.1;1.1;;;;;;;9.2;100.0;101770;;;;
2022/11/10 05:04:00;;;;;;;1.1;1.1;;;;;;;9.2;100.0;101770;;;;
2022/11/10 05:05:00;;;;;;;1.1;1.1;;;;;;;9.2;100.0;101780;;;;
2022/11/10 05:06:00;;;;;;;1.1;1.1;;;;;;;9.2;100.0;101780;;;;
2022/11/10 05:07:00;;;;;;;1.1;1.1;;;;;;;9.1;100.0;101780;;;;
2022/11/10 05:08:00;;;;;;;1.1;1.1;;;;;;;9.1;100.0;101780;;;;
2022/11/10 05:09:00;;;;;;;1.1;1.1;;;;;;;9.1;100.0;101770;;;;
2022/11/10 05:10:00;;;;;;;1.2;1.2;;;;;;;9.1;100.0;101770;;;;
2022/11/10 05:11:00;;;;;;;1.2;1.2;;;;;;;9.1;100.0;101780;;;;
2022/11/10 05:12:00;;;;;;;1.2;1.2;;;;;;;9.1;100.0;101780;;;;
2022/11/10 05:13:00;;;;;;;1.2;1.2;;;;;;;9.1;100.0;101780;;;;
2022/11/10 05:14:00;;;;;;;1.2;1.2;;;;;;;9.1;100.0;101780;;;;
2022/11/10 05:15:00;;;;;;;1.2;1.2;;;;;;;9.1;100.0;101780;;;;
2022/11/10 05:16:00;;;;;;;1.2;1.2;;;;;;;9.1;100.0;101780;;;;
2022/11/10 05:17:00;;;;;;;1.2;1.2;;;;;;;9.1;100.0;101780;;;;
2022/11/10 05:18:00;;;;;;;1.2;1.2;;;;;;;9.1;100.0;101780;;;;
2022/11/10 05:19:00;;;;;;;1.2;1.2;;;;;;;9.0;100.0;101780;;;;
2022/11/10 05:20:00;;;;;;;1.2;1.2;;;;;;;9.0;100.0;101780;;;;
2022/11/10 05:21:00;;;;;;;1.2;1.2;;;;;;;9.1;100.0;101770;;;;
2022/11/10 05:22:00;;;;;;;1.2;1.2;;;;;;;9.1;100.0;101770;;;;
2022/11/10 05:24:00;;;;;;;1.2;1.2;;;;;;;9.0;100.0;101770;;;;
2022/11/10 05:25:00;;;;;;;1.2;1.2;;;;;;;9.0;100.0;101770;;;;
2022/11/10 05:26:00;;;;;;;1.2;1.2;;;;;;;9.0;100.0;101770;;;;
2022/11/10 05:27:00;;;;;;;1.2;1.2;;;;;;;8.9;100.0;101780;;;;
2022/11/10 05:28:00;;;;;;;1.2;1.2;;;;;;;8.9;100.0;101780;;;;
2022/11/10 05:29:00;;;;;;;1.2;1.2;;;;;;;8.9;100.0;101780;;;;
2022/11/10 05:30:00;;;;;;;1.2;1.2;;;;;;;8.9;100.0;101780;;;;
2022/11/10 05:31:00;;;;;;;1.2;1.2;;;;;;;8.9;100.0;101780;;;;
2022/11/10 05:32:00;;;;;;;1.2;1.2;;;;;;;8.9;100.0;101780;;;;
2022/11/10 05:33:01;;;;;;;1.2;1.2;;;;;;;8.9;100.0;101780;;;;
2022/11/10 05:34:00;;;;;;;1.2;1.2;;;;;;;8.9;100.0;101780;;;;
2022/11/10 05:35:00;;;;;;;1.2;1.2;;;;;;;9.1;100.0;101780;;;;
2022/11/10 05:36:00;;;;;;;1.2;1.2;;;;;;;9.1;100.0;101780;;;;
2022/11/10 05:37:00;;;;;;;1.2;1.2;;;;;;;9.1;100.0;101780;;;;
2022/11/10 05:38:00;;;;;;;1.2;1.2;;;;;;;9.1;100.0;101780;;;;
2022/11/10 05:39:00;;;;;;;1.2;1.2;;;;;;;9.1;100.0;101780;;;;
2022/11/10 05:40:00;;;;;;;1.2;1.2;;;;;;;9.1;100.0;101780;;;;
2022/11/10 05:41:00;;;;;;;1.2;1.2;;;;;;;9.0;100.0;101780;;;;
2022/11/10 05:42:00;;;;;;;1.2;1.2;;;;;;;9.0;100.0;101780;;;;
2022/11/10 05:43:00;;;;;;;1.2;1.2;;;;;;;8.8;100.0;101790;;;;
2022/11/10 05:44:00;;;;;;;1.2;1.2;;;;;;;8.8;100.0;101790;;;;
2022/11/10 05:45:00;;;;;;;1.2;1.2;;;;;;;8.8;100.0;101790;;;;
2022/11/10 05:46:01;;;;;;;1.2;1.2;;;;;;;8.8;100.0;101790;;;;
2022/11/10 05:47:00;;;;;;;1.2;1.2;;;;;;;8.9;100.0;101790;;;;
2022/11/10 05:48:00;;;;;;;1.2;1.2;;;;;;;8.9;100.0;101790;;;;
2022/11/10 05:49:00;;;;;;;1.1;1.1;;;;;;;8.9;100.0;101790;;;;
2022/11/10 05:50:00;;;;;;;1.1;1.1;;;;;;;8.9;100.0;101790;;;;
2022/11/10 05:51:00;;;;;;;1.1;1.1;;;;;;;8.9;100.0;101800;;;;
2022/11/10 05:52:00;;;;;;;1.1;1.1;;;;;;;8.9;100.0;101800;;;;
2022/11/10 05:53:00;;;;;;;1.1;1.1;;;;;;;8.9;100.0;101800;;;;
2022/11/10 05:54:00;;;;;;;1.1;1.1;;;;;;;8.9;100.0;101800;;;;
2022/11/10 05:55:00;;;;;;;1.1;1.1;;;;;;;8.8;100.0;101800;;;;
2022/11/10 05:56:00;;;;;;;1.1;1.1;;;;;;;8.8;100.0;101800;;;;
2022/11/10 05:57:00;;;;;;;1.1;1.1;;;;;;;8.9;100.0;101800;;;;
2022/11/10 05:58:00;;;;;;;1.1;1.1;;;;;;;8.9;100.0;101800;;;;
2022/11/10 05:59:00;;;;;;;1.1;1.1;;;;;;;8.8;100.0;101810;;;;
2022/11/10 06:00:00;;;;;;;1.1;1.1;;;;;;;8.8;100.0;101810;;;;
2022/11/10 06:01:00;;;;;;;1.1;1.1;;;;;;;8.9;100.0;101810;;;;
2022/11/10 06:02:00;;;;;;;1.1;1.1;;;;;;;8.9;100.0;101810;;;;
2022/11/10 06:03:00;;;;;;;1.1;1.1;;;;;;;8.8;100.0;101820;;;;
2022/11/10 06:04:00;;;;;;;1.1;1.1;;;;;;;8.8;100.0;101820;;;;
2022/11/10 06:05:00;;;;;;;1.1;1.1;;;;;;;8.8;100.0;101820;;;;
2022/11/10 06:06:00;;;;;;;1.1;1.1;;;;;;;8.8;100.0;101820;;;;
2022/11/10 06:07:00;;;;;;;1.1;1.1;;;;;;;8.8;100.0;101820;;;;
2022/11/10 06:08:00;;;;;;;1.1;1.1;;;;;;;8.8;100.0;101820;;;;
2022/11/10 06:09:00;;;;;;;1.1;1.1;;;;;;;8.7;100.0;101820;;;;
2022/11/10 06:10:00;;;;;;;1.1;1.1;;;;;;;8.7;100.0;101820;;;;
2022/11/10 06:11:00;;;;;;;1.1;1.1;;;;;;;8.8;100.0;101830;;;;
2022/11/10 06:12:02;;;;;;;1.1;1.1;;;;;;;8.8;100.0;101830;;;;
2022/11/10 06:13:00;;;;;;;1.1;1.1;;;;;;;8.9;100.0;101830;;;;
2022/11/10 06:14:00;;;;;;;1.1;1.1;;;;;;;8.9;100.0;101830;;;;
2022/11/10 06:15:01;;;;;;;1.1;1.1;;;;;;;8.7;100.0;101830;;;;
2022/11/10 06:16:00;;;;;;;1.1;1.1;;;;;;;8.7;100.0;101830;;;;
2022/11/10 06:17:00;;;;;;;1.1;1.1;;;;;;;8.8;100.0;101830;;;;
2022/11/10 06:18:00;;;;;;;1.1;1.1;;;;;;;8.8;100.0;101830;;;;
2022/11/10 06:19:00;;;;;;;1.1;1.1;;;;;;;8.8;100.0;101830;;;;
2022/11/10 06:20:00;;;;;;;1.1;1.1;;;;;;;8.8;100.0;101830;;;;
2022/11/10 06:21:00;;;;;;;1.1;1.1;;;;;;;8.8;100.0;101830;;;;
2022/11/10 06:22:07;;;;;;;1.1;1.1;;;;;;;8.8;100.0;101830;;;;
2022/11/10 06:23:01;;;;;;;1.1;1.1;;;;;;;8.8;100.0;101840;;;;
2022/11/10 06:24:00;;;;;;;1.1;1.1;;;;;;;8.8;100.0;101840;;;;
2022/11/10 06:25:00;;;;;;;1.1;1.1;;;;;;;8.7;100.0;101840;;;;
2022/11/10 06:26:00;;;;;;;1.1;1.1;;;;;;;8.7;100.0;101840;;;;
2022/11/10 06:27:00;;;;;;;1.1;1.1;;;;;;;8.7;100.0;101840;;;;
2022/11/10 06:28:00;;;;;;;1.1;1.1;;;;;;;8.7;100.0;101840;;;;
2022/11/10 06:29:00;;;;;;;1.1;1.1;;;;;;;8.7;100.0;101840;;;;
2022/11/10 06:30:00;;;;;;;1.1;1.1;;;;;;;8.7;100.0;101840;;;;
2022/11/10 06:31:00;;;;;;;1.1;1.1;;;;;;;8.7;100.0;101840;;;;
2022/11/10 06:32:00;;;;;;;1.1;1.1;;;;;;;8.7;100.0;101840;;;;
2022/11/10 06:33:00;;;;;;;1.1;1.1;;;;;;;8.7;100.0;101850;;;;
2022/11/10 06:34:00;;;;;;;1.1;1.1;;;;;;;8.7;100.0;101850;;;;
2022/11/10 06:35:01;;;;;;;1.1;1.1;;;;;;;8.7;100.0;101850;;;;
2022/11/10 06:36:00;;;;;;;1.1;1.1;;;;;;;8.7;100.0;101850;;;;
2022/11/10 06:37:00;;;;;;;1.1;1.1;;;;;;;8.7;100.0;101850;;;;
2022/11/10 06:38:01;;;;;;;1.1;1.1;;;;;;;8.7;100.0;101850;;;;
2022/11/10 06:39:00;;;;;;;1.1;1.1;;;;;;;8.7;100.0;101860;;;;
2022/11/10 06:40:00;;;;;;;1.1;1.1;;;;;;;8.7;100.0;101860;;;;
2022/11/10 06:41:00;;;;;;;1.1;1.1;;;;;;;8.8;100.0;101860;;;;
2022/11/10 06:42:00;;;;;;;1.1;1.1;;;;;;;8.8;100.0;101860;;;;
2022/11/10 06:43:00;;;;;;;1.1;1.1;;;;;;;8.6;100.0;101860;;;;